createdAt,value
2018-12-05T00:00:00.000Z,4.9
2018-12-05T00:05:00.000Z,4.8
2018-12-05T00:10:00.000Z,4.8
2018-12-05T00:15:00.000Z,4.8
2018-12-05T00:20:00.000Z,4.7
2018-12-05T00:25:00.000Z,4.7
2018-12-05T00:30:00.000Z,4.7
2018-12-05T00:35:00.000Z,4.6
2018-12-05T00:40:00.000Z,4.5
2018-12-05T00:45:00.000Z,4.5
2018-12-05T00:50:00.000Z,4.4
2018-12-05T00:55:00.000Z,4.4
2018-12-05T01:00:00.000Z,4.3
2018-12-05T01:05:00.000Z,4.3
2018-12-05T01:10:00.000Z,4.3
2018-12-05T01:15:00.000Z,4.3
2018-12-05T01:20:00.000Z,4.3
2018-12-05T01:25:00.000Z,4.3
2018-12-05T01:30:00.000Z,4.2
2018-12-05T01:35:00.000Z,4.2
2018-12-05T01:40:00.000Z,4.2
2018-12-05T01:45:00.000Z,4.2
2018-12-05T01:50:00.000Z,4.2
2018-12-05T01:55:00.000Z,4.2
2018-12-05T02:00:00.000Z,4.2
2018-12-05T02:05:00.000Z,4.2
2018-12-05T02:10:00.000Z,4.1
2018-12-05T02:15:00.000Z,4.1
2018-12-05T02:20:00.000Z,4.1
2018-12-05T02:25:00.000Z,4.1
2018-12-05T02:30:00.000Z,4.1
2018-12-05T02:35:00.000Z,4.1
2018-12-05T02:40:00.000Z,4.0
2018-12-05T02:45:00.000Z,4.0
2018-12-05T02:50:00.000Z,3.9
2018-12-05T02:55:00.000Z,3.9
2018-12-05T03:00:00.000Z,3.8
2018-12-05T03:05:00.000Z,3.8
2018-12-05T03:10:00.000Z,3.8
2018-12-05T03:15:00.000Z,3.8
2018-12-05T03:20:00.000Z,3.7
2018-12-05T03:25:00.000Z,3.7
2018-12-05T03:30:00.000Z,3.6
2018-12-05T03:35:00.000Z,3.5
2018-12-05T03:40:00.000Z,3.5
2018-12-05T03:45:00.000Z,3.4
2018-12-05T03:50:00.000Z,3.4
2018-12-05T03:55:00.000Z,3.4
2018-12-05T04:00:00.000Z,3.4
2018-12-05T04:05:00.000Z,3.4
2018-12-05T04:10:00.000Z,3.4
2018-12-05T04:15:00.000Z,3.3
2018-12-05T04:20:00.000Z,3.3
2018-12-05T04:25:00.000Z,3.3
2018-12-05T04:30:00.000Z,3.3
2018-12-05T04:35:00.000Z,3.3
2018-12-05T04:40:00.000Z,3.3
2018-12-05T04:45:00.000Z,3.4
2018-12-05T04:50:00.000Z,3.4
2018-12-05T04:55:00.000Z,3.5
2018-12-05T05:00:00.000Z,3.5
2018-12-05T05:05:00.000Z,3.4
2018-12-05T05:10:00.000Z,3.4
2018-12-05T05:15:00.000Z,3.4
2018-12-05T05:20:00.000Z,3.4
2018-12-05T05:25:00.000Z,3.4
2018-12-05T05:30:00.000Z,3.4
2018-12-05T05:35:00.000Z,3.4
2018-12-05T05:40:00.000Z,3.4
2018-12-05T05:45:00.000Z,3.4
2018-12-05T05:51:00.000Z,3.3
2018-12-05T05:56:00.000Z,3.3
2018-12-05T06:01:00.000Z,3.3
2018-12-05T06:06:00.000Z,3.3
2018-12-05T06:11:00.000Z,3.3
2018-12-05T06:16:00.000Z,3.4
2018-12-05T06:21:00.000Z,3.4
2018-12-05T06:26:00.000Z,3.4
2018-12-05T06:31:00.000Z,3.4
2018-12-05T06:36:00.000Z,3.4
2018-12-05T06:41:00.000Z,3.4
2018-12-05T06:46:00.000Z,3.3
2018-12-05T06:51:00.000Z,3.3
2018-12-05T06:56:00.000Z,3.2
2018-12-05T07:01:00.000Z,3.2
2018-12-05T07:06:00.000Z,3.2
2018-12-05T07:11:00.000Z,3.3
2018-12-05T07:16:00.000Z,3.3
2018-12-05T07:21:00.000Z,3.4
2018-12-05T07:26:00.000Z,3.5
2018-12-05T07:31:00.000Z,3.6
2018-12-05T07:36:00.000Z,3.8
2018-12-05T07:41:00.000Z,3.9
2018-12-05T07:46:00.000Z,4.0
2018-12-05T07:51:00.000Z,4.1
2018-12-05T07:56:00.000Z,4.1
2018-12-05T08:01:00.000Z,4.2
2018-12-05T08:06:00.000Z,4.3
2018-12-05T08:11:00.000Z,4.3
2018-12-05T08:16:00.000Z,4.4
2018-12-05T08:21:00.000Z,4.4
2018-12-05T08:26:00.000Z,4.5
2018-12-05T08:31:00.000Z,4.5
2018-12-05T08:36:00.000Z,4.6
2018-12-05T08:41:00.000Z,4.7
2018-12-05T08:46:00.000Z,4.8
2018-12-05T08:51:00.000Z,4.8
2018-12-05T08:56:00.000Z,4.9
2018-12-05T09:01:00.000Z,5.1
2018-12-05T09:06:00.000Z,5.2
2018-12-05T09:11:00.000Z,5.4
2018-12-05T09:16:00.000Z,6.5
2018-12-05T09:21:00.000Z,7.9
2018-12-05T09:26:00.000Z,7.7
2018-12-05T09:31:00.000Z,7.4
2018-12-05T09:36:00.000Z,7.2
2018-12-05T09:41:00.000Z,7.0
2018-12-05T09:46:00.000Z,6.9
2018-12-05T09:51:00.000Z,6.9
2018-12-05T09:56:00.000Z,6.8
2018-12-05T10:01:00.000Z,6.7
2018-12-05T10:06:00.000Z,6.8
2018-12-05T10:11:00.000Z,6.9
2018-12-05T10:16:00.000Z,8.0
2018-12-05T10:21:00.000Z,9.1
2018-12-05T10:26:00.000Z,10.3
2018-12-05T10:31:00.000Z,11.2
2018-12-05T10:36:00.000Z,11.3
2018-12-05T10:41:00.000Z,11.5
2018-12-05T10:46:00.000Z,11.5
2018-12-05T10:51:00.000Z,11.8
2018-12-05T10:56:00.000Z,11.8
2018-12-05T11:01:00.000Z,11.6
2018-12-05T11:06:00.000Z,11.7
2018-12-05T11:11:00.000Z,11.7
2018-12-05T11:16:00.000Z,11.4
2018-12-05T11:21:00.000Z,11.3
2018-12-05T11:26:00.000Z,11.2
2018-12-05T11:31:00.000Z,10.8
2018-12-05T11:36:00.000Z,10.6
2018-12-05T11:41:00.000Z,10.5
2018-12-05T11:46:00.000Z,10.1
2018-12-05T11:51:00.000Z,9.5
2018-12-05T11:56:00.000Z,9.0
2018-12-05T12:01:00.000Z,8.8
2018-12-05T12:07:00.000Z,8.6
2018-12-05T12:12:00.000Z,8.5
2018-12-05T12:17:00.000Z,8.5
2018-12-05T12:22:00.000Z,8.5
2018-12-05T12:27:00.000Z,8.5
2018-12-05T12:32:00.000Z,8.4
2018-12-05T12:37:00.000Z,8.4
2018-12-05T12:42:00.000Z,8.5
2018-12-05T12:47:00.000Z,8.6
2018-12-05T12:52:00.000Z,8.6
2018-12-05T12:57:00.000Z,8.7
2018-12-05T13:02:00.000Z,8.7
2018-12-05T13:07:00.000Z,8.7
2018-12-05T13:12:00.000Z,8.5
2018-12-05T13:17:00.000Z,8.5
2018-12-05T13:22:00.000Z,8.4
2018-12-05T13:27:00.000Z,8.4
2018-12-05T13:32:00.000Z,8.3
2018-12-05T13:37:00.000Z,8.2
2018-12-05T13:42:00.000Z,8.3
2018-12-05T13:47:00.000Z,8.2
2018-12-05T13:52:00.000Z,8.1
2018-12-05T13:57:00.000Z,7.9
2018-12-05T14:02:00.000Z,7.8
2018-12-05T14:07:00.000Z,7.7
2018-12-05T14:12:00.000Z,7.6
2018-12-05T14:17:00.000Z,7.5
2018-12-05T14:22:00.000Z,7.4
2018-12-05T14:27:00.000Z,7.3
2018-12-05T14:32:00.000Z,7.2
2018-12-05T14:37:00.000Z,7.1
2018-12-05T14:42:00.000Z,7.1
2018-12-05T14:47:00.000Z,7.1
2018-12-05T14:52:00.000Z,7.0
2018-12-05T14:57:00.000Z,6.9
2018-12-05T15:02:00.000Z,6.9
2018-12-05T15:07:00.000Z,6.8
2018-12-05T15:12:00.000Z,6.7
2018-12-05T15:17:00.000Z,6.6
2018-12-05T15:22:00.000Z,6.6
2018-12-05T15:27:00.000Z,6.5
2018-12-05T15:32:00.000Z,6.4
2018-12-05T15:37:00.000Z,6.4
2018-12-05T15:42:00.000Z,6.3
2018-12-05T15:47:00.000Z,6.3
2018-12-05T15:52:00.000Z,6.2
2018-12-05T15:57:00.000Z,6.2
2018-12-05T16:02:00.000Z,6.2
2018-12-05T16:07:00.000Z,6.1
2018-12-05T16:12:00.000Z,6.1
2018-12-05T16:17:00.000Z,6.0
2018-12-05T16:22:00.000Z,6.0
2018-12-05T16:27:00.000Z,6.0
2018-12-05T16:32:00.000Z,5.9
2018-12-05T16:37:00.000Z,5.9
2018-12-05T16:42:00.000Z,5.9
2018-12-05T16:47:00.000Z,5.9
2018-12-05T16:52:00.000Z,5.8
2018-12-05T16:57:00.000Z,5.8
2018-12-05T17:02:00.000Z,5.7
2018-12-05T17:07:00.000Z,5.7
2018-12-05T17:12:00.000Z,5.6
2018-12-05T17:17:00.000Z,5.5
2018-12-05T17:22:00.000Z,5.5
2018-12-05T17:27:00.000Z,5.4
2018-12-05T17:32:00.000Z,5.3
2018-12-05T17:37:00.000Z,5.2
2018-12-05T17:42:00.000Z,5.1
2018-12-05T17:47:00.000Z,5.0
2018-12-05T17:52:00.000Z,4.9
2018-12-05T17:57:00.000Z,4.8
2018-12-05T18:02:00.000Z,4.7
2018-12-05T18:07:00.000Z,4.7
2018-12-05T18:13:00.000Z,4.6
2018-12-05T18:18:00.000Z,4.5
2018-12-05T18:23:00.000Z,4.4
2018-12-05T18:28:00.000Z,4.3
2018-12-05T18:33:00.000Z,4.3
2018-12-05T18:38:00.000Z,4.2
2018-12-05T18:43:00.000Z,4.1
2018-12-05T18:48:00.000Z,4.1
2018-12-05T18:53:00.000Z,4.0
2018-12-05T18:58:00.000Z,3.9
2018-12-05T19:03:00.000Z,3.9
2018-12-05T19:08:00.000Z,3.8
2018-12-05T19:13:00.000Z,3.9
2018-12-05T19:18:00.000Z,3.9
2018-12-05T19:23:00.000Z,3.9
2018-12-05T19:28:00.000Z,3.8
2018-12-05T19:33:00.000Z,3.8
2018-12-05T19:38:00.000Z,3.8
2018-12-05T19:43:00.000Z,3.8
2018-12-05T19:48:00.000Z,3.8
2018-12-05T19:53:00.000Z,3.8
2018-12-05T19:58:00.000Z,3.8
2018-12-05T20:03:00.000Z,3.7
2018-12-05T20:08:00.000Z,3.7
2018-12-05T20:13:00.000Z,3.7
2018-12-05T20:18:00.000Z,3.7
2018-12-05T20:23:00.000Z,3.7
2018-12-05T20:28:00.000Z,3.6
2018-12-05T20:33:00.000Z,3.5
2018-12-05T20:38:00.000Z,3.4
2018-12-05T20:43:00.000Z,3.4
2018-12-05T20:48:00.000Z,3.3
2018-12-05T20:53:00.000Z,3.3
2018-12-05T20:58:00.000Z,3.3
2018-12-05T21:03:00.000Z,3.2
2018-12-05T21:08:00.000Z,3.0
2018-12-05T21:13:00.000Z,2.8
2018-12-05T21:18:00.000Z,2.7
2018-12-05T21:23:00.000Z,2.6
2018-12-05T21:28:00.000Z,2.5
2018-12-05T21:33:00.000Z,2.4
2018-12-05T21:38:00.000Z,2.3
2018-12-05T21:43:00.000Z,2.2
2018-12-05T21:48:00.000Z,2.2
2018-12-05T21:53:00.000Z,2.1
2018-12-05T21:58:00.000Z,2.1
2018-12-05T22:03:00.000Z,2.0
2018-12-05T22:08:00.000Z,2.0
2018-12-05T22:13:00.000Z,1.9
2018-12-05T22:18:00.000Z,1.9
2018-12-05T22:23:00.000Z,1.8
2018-12-05T22:28:00.000Z,1.8
2018-12-05T22:33:00.000Z,1.8
2018-12-05T22:38:00.000Z,1.8
2018-12-05T22:43:00.000Z,1.7
2018-12-05T22:48:00.000Z,1.7
2018-12-05T22:53:00.000Z,1.8
2018-12-05T22:58:00.000Z,1.8
2018-12-05T23:03:00.000Z,1.7
2018-12-05T23:08:00.000Z,1.6
2018-12-05T23:13:00.000Z,1.5
2018-12-05T23:18:00.000Z,1.4
2018-12-05T23:23:00.000Z,1.4
2018-12-05T23:28:00.000Z,1.4
2018-12-05T23:33:00.000Z,1.3
2018-12-05T23:38:00.000Z,1.2
2018-12-05T23:43:00.000Z,1.0
2018-12-05T23:48:00.000Z,0.9
2018-12-05T23:53:00.000Z,0.8
2018-12-05T23:58:00.000Z,0.9
